Terminal Aerodrome Forecast
Issued by NWS

Home | Current Version | Previous Version | Text Only | Print | Product List | Glossary On
Versions: 1 2 3 4 5 6 7 8 9 10 11 12 13 14 15 16 17 18 19
000
FTAK31 PAFA 051737
TAFAOT
TAF
PAOT 051737Z 0518/0618 VRB04KT 1 1/2SM BR OVC003
     FM052100 VRB04KT 1 1/2SM BR BKN004 OVC007
     FM060600 28006KT 1 1/2SM BR BKN007 OVC015=

USA.gov is the U.S. government's official web portal to all federal, state and local government web resources and services.